• Join FlightAware (Why Join?)
  • Login
  • US Flag 
09:46AM EDT


 

Airport Tracker/Info


-or-


 

Live Flight TrackerFlight Track Log ✈ LOF3416 ✈ 14-Apr-2013 ✈ KIAD - KDAY

Flight Track Log - Related Links

Times and Time Zones

All times are in EDT time to prevent confusion due to time zone crossing. See the LOF3416 flight status page for this flight to view local times or setup timezone preferences in your user account.

Time Position Orientation Groundspeed Altitude Reporting Facility
EDT Latitude Longitude Course Direction KTS MPH feet Rate Location/Type
10:16PM 38.9167 -77.4500 303° West 173 199 1,700  Level Potomac TRACON
10:17PM 38.8667 -77.5000 218° Southwest 218 251 4,000 2,280 Climbing Potomac TRACON
10:19PM 38.8812 -77.8153 260° West  Level FlightAware Approximate
10:20PM 38.8743 -77.9396 293° West  Level FlightAware Approximate
10:20PM 38.7794 -77.6261 228° Southwest 229 264 9,200  Level Washington Center
10:21PM 38.9069 -78.0606 288° West  Level FlightAware Approximate
10:21PM 38.7758 -77.7192 267° West 247 284 11,300  Level Washington Center
10:22PM 38.9404 -78.1808 303° West  Level FlightAware Approximate
10:22PM 38.8200 -77.8164 300° West 247 284 13,000  Level Washington Center
10:23PM 38.8658 -77.9164 301° West 298 343 14,000 1,200 Climbing Washington Center
10:24PM 38.9011 -78.0297 292° West 325 374 15,500 1,500 Climbing Washington Center
10:25PM 38.9383 -78.1483 292° West 346 398 17,000 1,560 Climbing Washington Center
10:26PM 38.9628 -78.2667 285° West 352 405 18,700 1,800 Climbing Washington Center
10:27PM 38.9664 -78.3869 272° West 342 394 20,700 1,740 Climbing Washington Center
10:28PM 38.9678 -78.5072 271° West 336 387 22,200 1,440 Climbing Washington Center
10:29PM 38.9711 -78.6275 272° West 336 387 23,600 1,380 Climbing Washington Center
10:30PM 38.9742 -78.7531 272° West 346 398 25,000 1,320 Climbing Washington Center
10:31PM 38.9769 -78.8786 272° West 352 405 26,300 1,140 Climbing Washington Center
10:32PM 38.9797 -79.0044 272° West 352 405 27,300 840 Climbing Washington Center
10:33PM 38.9864 -79.1303 274° West 352 405 28,000 300 Climbing Washington Center
10:34PM 38.9947 -79.2667 275° West 369 425 28,000  Level Washington Center
10:35PM 39.0072 -79.4064 277° West 381 438 28,000  Level Washington Center
10:36PM 39.0192 -79.5511 276° West 398 458 28,000  Level Washington Center
10:37PM 39.0350 -79.7017 278° West 417 480 28,000  Level Washington Center
10:38PM 39.0453 -79.8253 276° West 410 472 28,000  Level Washington Center
10:39PM 39.0567 -79.9703 276° West 405 466 28,000  Level Washington Center
10:40PM 39.0681 -80.1181 276° West 411 473 28,000  Level Washington Center
10:41PM 39.0706 -80.2375 272° West 411 473 28,000  Level Indianapolis Center
10:42PM 39.0817 -80.3867 276° West 417 480 28,000  Level Indianapolis Center
10:43PM 39.0922 -80.5353 275° West 418 481 28,000  Level Indianapolis Center
10:44PM 39.1089 -80.6839 278° West 421 484 28,000  Level Indianapolis Center
10:45PM 39.1297 -80.8631 279° West 423 487 28,000  Level Indianapolis Center
10:46PM 39.1469 -81.0114 279° West 422 486 28,000  Level Indianapolis Center
10:47PM 39.1642 -81.1631 278° West 428 493 28,000  Level Indianapolis Center
10:48PM 39.1811 -81.3133 278° West 427 491 28,000  Level Indianapolis Center
10:49PM 39.1989 -81.4639 279° West 429 494 28,000  Level Indianapolis Center
10:50PM 39.2147 -81.6156 278° West 429 494 28,000  Level Indianapolis Center
10:51PM 39.2319 -81.7667 278° West 429 494 28,000  Level Indianapolis Center
10:52PM 39.2481 -81.9189 278° West 430 495 28,000  Level Indianapolis Center
10:53PM 39.2636 -82.0717 278° West 432 497 28,000  Level Indianapolis Center
10:54PM 39.2797 -82.2244 278° West 432 497 28,000 -540 Level Indianapolis Center
10:55PM 39.2958 -82.3764 278° West 431 496 27,000 -1,320 Descending Indianapolis Center
10:56PM 39.3119 -82.5400 277° West 438 504 25,400 -1,500 Descending Indianapolis Center
10:57PM 39.3272 -82.6956 277° West 435 501 24,000 -1,440 Descending Indianapolis Center
10:58PM 39.3431 -82.8489 278° West 427 491 22,500 -1,740 Descending Indianapolis Center
10:59PM 39.3569 -82.9964 277° West 413 475 20,600 -1,920 Descending Indianapolis Center
11:00PM 39.3703 -83.1378 277° West 395 455 18,600 -2,220 Descending Indianapolis Center
11:01PM 39.3842 -83.2828 277° West 382 440 16,300 -2,400 Descending Indianapolis Center
11:02PM 39.3975 -83.4192 277° West 380 437 13,900 -2,400 Descending Indianapolis Center
11:03PM 39.4422 -83.5311 297° West 376 433 11,400 -1,980 Descending Indianapolis Center
11:04PM 39.5097 -83.6303 311° West 356 410 10,000 -720 Descending Indianapolis Center
11:05PM 39.5689 -83.7375 306° West 334 384 10,000 -540 Level Indianapolis Center
11:06PM 39.6081 -83.8292 299° West 293 337 9,000 -1,140 Descending Indianapolis Center
11:07PM 39.6472 -83.9183 300° West 285 328 7,800 -1,440 Descending Indianapolis Center
11:08PM 39.6867 -84.0053 301° West 283 326 6,100 -1,380 Descending Indianapolis Center
11:09PM 39.7242 -84.0908 300° West 265 305 5,100 -1,020 Descending Indianapolis Center
11:10PM 39.7600 -84.1689 301° West 259 298 4,100 -1,140 Descending Indianapolis Center
11:11PM 39.7956 -84.2469 301° West 243 280 2,900 -1,200 Descending Indianapolis Center